sensor_id;sensor_type;location;lat;lon;timestamp;pressure;altitude;pressure_sealevel;temperature;humidity
71151;BME280;59071;42.138;24.768;2023-02-18T00:00:11;100394.25;;;9.43;39.85
71151;BME280;59071;42.138;24.768;2023-02-18T00:02:37;100390.72;;;9.42;39.65
71151;BME280;59071;42.138;24.768;2023-02-18T00:05:02;100388.03;;;9.12;40.58
71151;BME280;59071;42.138;24.768;2023-02-18T00:07:28;100390.13;;;9.17;40.27
71151;BME280;59071;42.138;24.768;2023-02-18T00:09:53;100392.44;;;9.20;40.21
71151;BME280;59071;42.138;24.768;2023-02-18T00:12:18;100392.38;;;9.05;40.16
71151;BME280;59071;42.138;24.768;2023-02-18T00:14:44;100389.06;;;9.26;40.07
71151;BME280;59071;42.138;24.768;2023-02-18T00:17:09;100389.59;;;9.22;40.48
71151;BME280;59071;42.138;24.768;2023-02-18T00:19:34;100381.59;;;9.45;39.55
71151;BME280;59071;42.138;24.768;2023-02-18T00:21:59;100379.84;;;9.52;38.92
71151;BME280;59071;42.138;24.768;2023-02-18T00:24:25;100375.84;;;9.71;39.17
71151;BME280;59071;42.138;24.768;2023-02-18T00:26:50;100378.31;;;9.57;39.00
71151;BME280;59071;42.138;24.768;2023-02-18T00:29:16;100369.88;;;9.39;39.16
71151;BME280;59071;42.138;24.768;2023-02-18T00:31:41;100372.72;;;9.52;39.08
71151;BME280;59071;42.138;24.768;2023-02-18T00:34:08;100372.97;;;9.43;39.30
71151;BME280;59071;42.138;24.768;2023-02-18T00:36:34;100372.16;;;9.57;39.28
71151;BME280;59071;42.138;24.768;2023-02-18T00:39:01;100365.56;;;9.53;39.24
71151;BME280;59071;42.138;24.768;2023-02-18T00:41:28;100364.56;;;9.54;38.90
71151;BME280;59071;42.138;24.768;2023-02-18T00:43:53;100352.41;;;9.59;38.71
71151;BME280;59071;42.138;24.768;2023-02-18T00:46:19;100351.38;;;9.75;38.34
71151;BME280;59071;42.138;24.768;2023-02-18T00:48:45;100347.88;;;9.45;38.79
71151;BME280;59071;42.138;24.768;2023-02-18T00:51:10;100338.06;;;9.46;38.54
71151;BME280;59071;42.138;24.768;2023-02-18T00:53:36;100336.25;;;9.61;38.73
71151;BME280;59071;42.138;24.768;2023-02-18T00:56:02;100341.75;;;9.74;38.51
71151;BME280;59071;42.138;24.768;2023-02-18T00:58:27;100341.91;;;10.03;37.75
71151;BME280;59071;42.138;24.768;2023-02-18T01:00:53;100325.34;;;10.01;38.26
71151;BME280;59071;42.138;24.768;2023-02-18T01:03:18;100320.94;;;9.93;38.54
71151;BME280;59071;42.138;24.768;2023-02-18T01:05:44;100323.06;;;9.83;37.72
71151;BME280;59071;42.138;24.768;2023-02-18T01:08:09;100312.78;;;9.65;38.30
71151;BME280;59071;42.138;24.768;2023-02-18T01:10:36;100317.72;;;9.38;38.99
71151;BME280;59071;42.138;24.768;2023-02-18T01:13:01;100314.53;;;9.43;39.22
71151;BME280;59071;42.138;24.768;2023-02-18T01:15:28;100312.94;;;9.18;39.41
71151;BME280;59071;42.138;24.768;2023-02-18T01:17:53;100306.13;;;9.01;40.13
71151;BME280;59071;42.138;24.768;2023-02-18T01:20:19;100309.50;;;8.72;40.45
71151;BME280;59071;42.138;24.768;2023-02-18T01:22:44;100303.91;;;8.67;40.56
71151;BME280;59071;42.138;24.768;2023-02-18T01:25:10;100296.22;;;8.57;41.16
71151;BME280;59071;42.138;24.768;2023-02-18T01:27:35;100305.94;;;8.41;42.06
71151;BME280;59071;42.138;24.768;2023-02-18T01:30:01;100290.00;;;8.33;42.46
71151;BME280;59071;42.138;24.768;2023-02-18T01:32:27;100294.25;;;8.19;42.34
71151;BME280;59071;42.138;24.768;2023-02-18T01:34:52;100286.41;;;8.26;42.81
71151;BME280;59071;42.138;24.768;2023-02-18T01:37:17;100286.78;;;8.23;42.32
71151;BME280;59071;42.138;24.768;2023-02-18T01:39:43;100282.53;;;8.37;42.42
71151;BME280;59071;42.138;24.768;2023-02-18T01:42:18;100281.97;;;8.18;42.52
71151;BME280;59071;42.138;24.768;2023-02-18T01:44:44;100277.81;;;7.93;43.39
71151;BME280;59071;42.138;24.768;2023-02-18T01:47:10;100273.53;;;7.83;43.05
71151;BME280;59071;42.138;24.768;2023-02-18T01:49:35;100280.31;;;7.86;44.24
71151;BME280;59071;42.138;24.768;2023-02-18T01:52:03;100278.28;;;7.96;43.66
71151;BME280;59071;42.138;24.768;2023-02-18T01:54:33;100278.69;;;7.85;44.25
71151;BME280;59071;42.138;24.768;2023-02-18T01:57:00;100281.13;;;7.95;43.86
71151;BME280;59071;42.138;24.768;2023-02-18T01:59:27;100278.19;;;7.81;43.74
71151;BME280;59071;42.138;24.768;2023-02-18T02:01:54;100278.75;;;7.69;43.48
71151;BME280;59071;42.138;24.768;2023-02-18T02:04:20;100272.06;;;7.81;44.27
71151;BME280;59071;42.138;24.768;2023-02-18T02:06:46;100269.75;;;7.78;44.12
71151;BME280;59071;42.138;24.768;2023-02-18T02:09:12;100271.06;;;7.82;43.91
71151;BME280;59071;42.138;24.768;2023-02-18T02:17:00;100278.25;;;7.65;44.14
71151;BME280;59071;42.138;24.768;2023-02-18T02:32:20;100291.44;;;7.34;44.36
71151;BME280;59071;42.138;24.768;2023-02-18T02:50:24;100299.72;;;7.87;43.89
71151;BME280;59071;42.138;24.768;2023-02-18T02:52:51;100296.91;;;7.80;44.10
71151;BME280;59071;42.138;24.768;2023-02-18T02:55:19;100293.66;;;7.70;44.17
71151;BME280;59071;42.138;24.768;2023-02-18T02:57:48;100297.44;;;7.67;44.41
71151;BME280;59071;42.138;24.768;2023-02-18T03:00:15;100296.69;;;7.90;43.38
71151;BME280;59071;42.138;24.768;2023-02-18T03:20:27;100272.63;;;7.99;42.34
71151;BME280;59071;42.138;24.768;2023-02-18T03:22:56;100267.22;;;7.93;42.43
71151;BME280;59071;42.138;24.768;2023-02-18T03:25:24;100263.63;;;8.09;41.60
71151;BME280;59071;42.138;24.768;2023-02-18T03:27:51;100253.25;;;8.30;42.01
71151;BME280;59071;42.138;24.768;2023-02-18T03:30:22;100252.78;;;7.95;42.00
71151;BME280;59071;42.138;24.768;2023-02-18T03:32:48;100257.13;;;8.19;41.40
71151;BME280;59071;42.138;24.768;2023-02-18T03:35:16;100255.31;;;8.43;41.38
71151;BME280;59071;42.138;24.768;2023-02-18T03:37:44;100257.41;;;8.56;40.78
71151;BME280;59071;42.138;24.768;2023-02-18T03:40:12;100261.16;;;8.61;40.23
71151;BME280;59071;42.138;24.768;2023-02-18T03:42:37;100263.81;;;8.61;40.05
71151;BME280;59071;42.138;24.768;2023-02-18T03:45:03;100262.69;;;8.79;39.97
71151;BME280;59071;42.138;24.768;2023-02-18T03:47:28;100271.13;;;8.83;39.84
71151;BME280;59071;42.138;24.768;2023-02-18T03:49:53;100269.19;;;8.76;39.56
71151;BME280;59071;42.138;24.768;2023-02-18T03:52:18;100275.38;;;8.69;39.92
71151;BME280;59071;42.138;24.768;2023-02-18T03:54:44;100281.75;;;8.59;39.83
71151;BME280;59071;42.138;24.768;2023-02-18T03:57:09;100280.84;;;8.67;39.76
71151;BME280;59071;42.138;24.768;2023-02-18T03:59:34;100292.38;;;8.97;39.26
71151;BME280;59071;42.138;24.768;2023-02-18T04:02:00;100292.66;;;8.88;38.75
71151;BME280;59071;42.138;24.768;2023-02-18T04:04:25;100290.09;;;8.94;39.29
71151;BME280;59071;42.138;24.768;2023-02-18T04:06:50;100292.19;;;9.37;38.15
71151;BME280;59071;42.138;24.768;2023-02-18T04:09:16;100295.47;;;9.39;38.56
71151;BME280;59071;42.138;24.768;2023-02-18T04:11:41;100291.88;;;9.17;38.55
71151;BME280;59071;42.138;24.768;2023-02-18T04:14:06;100288.28;;;8.95;38.93
71151;BME280;59071;42.138;24.768;2023-02-18T04:16:32;100305.97;;;9.03;38.88
71151;BME280;59071;42.138;24.768;2023-02-18T04:18:57;100293.38;;;8.96;38.61
71151;BME280;59071;42.138;24.768;2023-02-18T04:21:22;100299.00;;;9.02;38.70
71151;BME280;59071;42.138;24.768;2023-02-18T04:23:48;100301.09;;;9.06;38.44
71151;BME280;59071;42.138;24.768;2023-02-18T04:26:13;100306.53;;;9.13;38.33
71151;BME280;59071;42.138;24.768;2023-02-18T04:28:38;100246.38;;;8.67;38.45
71151;BME280;59071;42.138;24.768;2023-02-18T04:31:04;100300.53;;;8.96;39.04
71151;BME280;59071;42.138;24.768;2023-02-18T04:33:29;100300.44;;;8.89;38.47
71151;BME280;59071;42.138;24.768;2023-02-18T04:35:54;100307.81;;;9.17;38.23
71151;BME280;59071;42.138;24.768;2023-02-18T04:38:20;100299.56;;;9.27;38.49
71151;BME280;59071;42.138;24.768;2023-02-18T04:40:45;100306.38;;;9.44;37.05
71151;BME280;59071;42.138;24.768;2023-02-18T04:43:10;100314.44;;;9.51;37.14
71151;BME280;59071;42.138;24.768;2023-02-18T04:45:36;100305.63;;;9.65;36.61
71151;BME280;59071;42.138;24.768;2023-02-18T04:48:01;100302.97;;;9.65;36.53
71151;BME280;59071;42.138;24.768;2023-02-18T04:50:26;100296.75;;;9.88;36.51
71151;BME280;59071;42.138;24.768;2023-02-18T04:52:52;100285.00;;;9.82;36.13
71151;BME280;59071;42.138;24.768;2023-02-18T04:55:17;100293.63;;;9.84;36.24
71151;BME280;59071;42.138;24.768;2023-02-18T04:57:42;100287.94;;;9.87;36.53
71151;BME280;59071;42.138;24.768;2023-02-18T05:00:08;100289.34;;;9.83;36.36
71151;BME280;59071;42.138;24.768;2023-02-18T05:02:35;100303.38;;;9.77;36.70
71151;BME280;59071;42.138;24.768;2023-02-18T05:05:00;100306.47;;;9.81;37.05
71151;BME280;59071;42.138;24.768;2023-02-18T05:07:25;100309.03;;;9.74;37.31
71151;BME280;59071;42.138;24.768;2023-02-18T05:09:51;100306.84;;;9.77;37.55
71151;BME280;59071;42.138;24.768;2023-02-18T05:12:16;100301.63;;;9.54;36.92
71151;BME280;59071;42.138;24.768;2023-02-18T05:14:41;100299.94;;;9.38;37.44
71151;BME280;59071;42.138;24.768;2023-02-18T05:17:07;100304.16;;;9.48;37.13
71151;BME280;59071;42.138;24.768;2023-02-18T05:19:32;100299.88;;;9.47;37.32
71151;BME280;59071;42.138;24.768;2023-02-18T05:21:57;100299.44;;;9.58;37.31
71151;BME280;59071;42.138;24.768;2023-02-18T05:24:22;100300.25;;;9.58;36.86
71151;BME280;59071;42.138;24.768;2023-02-18T05:26:48;100297.59;;;9.73;36.48
71151;BME280;59071;42.138;24.768;2023-02-18T05:29:13;100296.22;;;9.77;36.31
71151;BME280;59071;42.138;24.768;2023-02-18T05:31:38;100294.81;;;9.82;36.63
71151;BME280;59071;42.138;24.768;2023-02-18T05:34:04;100290.09;;;10.13;36.30
71151;BME280;59071;42.138;24.768;2023-02-18T05:36:29;100292.13;;;10.11;36.40
71151;BME280;59071;42.138;24.768;2023-02-18T05:38:54;100287.19;;;9.93;36.43
71151;BME280;59071;42.138;24.768;2023-02-18T05:41:20;100293.53;;;10.07;36.13
71151;BME280;59071;42.138;24.768;2023-02-18T05:43:45;100289.00;;;10.08;36.08
71151;BME280;59071;42.138;24.768;2023-02-18T05:46:29;100293.09;;;10.40;35.30
71151;BME280;59071;42.138;24.768;2023-02-18T05:48:54;100291.19;;;10.34;35.32
71151;BME280;59071;42.138;24.768;2023-02-18T05:51:19;100297.19;;;10.43;35.47
71151;BME280;59071;42.138;24.768;2023-02-18T05:53:44;100304.63;;;10.69;34.76
71151;BME280;59071;42.138;24.768;2023-02-18T05:56:10;100301.28;;;11.10;34.92
71151;BME280;59071;42.138;24.768;2023-02-18T05:58:35;100295.56;;;11.13;34.82
71151;BME280;59071;42.138;24.768;2023-02-18T06:01:00;100295.16;;;10.88;34.71
71151;BME280;59071;42.138;24.768;2023-02-18T06:03:25;100297.88;;;10.94;34.12
71151;BME280;59071;42.138;24.768;2023-02-18T06:05:51;100295.16;;;10.88;34.13
71151;BME280;59071;42.138;24.768;2023-02-18T06:08:17;100293.09;;;10.62;34.74
71151;BME280;59071;42.138;24.768;2023-02-18T06:10:44;100300.66;;;11.08;33.76
71151;BME280;59071;42.138;24.768;2023-02-18T06:13:09;100296.34;;;11.07;33.41
71151;BME280;59071;42.138;24.768;2023-02-18T06:15:34;100301.34;;;11.17;33.56
71151;BME280;59071;42.138;24.768;2023-02-18T06:18:00;100297.59;;;11.11;33.46
71151;BME280;59071;42.138;24.768;2023-02-18T06:20:25;100297.88;;;11.23;33.86
71151;BME280;59071;42.138;24.768;2023-02-18T06:22:50;100295.94;;;11.38;33.25
71151;BME280;59071;42.138;24.768;2023-02-18T06:25:16;100300.00;;;11.27;33.83
71151;BME280;59071;42.138;24.768;2023-02-18T06:27:41;100298.19;;;11.06;33.76
71151;BME280;59071;42.138;24.768;2023-02-18T06:30:06;100294.44;;;11.29;33.51
71151;BME280;59071;42.138;24.768;2023-02-18T06:32:32;100290.50;;;11.18;33.69
71151;BME280;59071;42.138;24.768;2023-02-18T06:34:57;100302.59;;;11.55;33.37
71151;BME280;59071;42.138;24.768;2023-02-18T06:37:23;100298.59;;;11.38;33.54
71151;BME280;59071;42.138;24.768;2023-02-18T06:39:48;100299.38;;;11.67;32.66
71151;BME280;59071;42.138;24.768;2023-02-18T06:42:13;100296.84;;;11.87;32.23
71151;BME280;59071;42.138;24.768;2023-02-18T06:44:38;100293.91;;;11.75;32.56
71151;BME280;59071;42.138;24.768;2023-02-18T06:47:04;100295.28;;;11.64;32.67
71151;BME280;59071;42.138;24.768;2023-02-18T06:49:29;100278.88;;;12.02;32.51
71151;BME280;59071;42.138;24.768;2023-02-18T06:51:54;100262.53;;;11.77;32.81
71151;BME280;59071;42.138;24.768;2023-02-18T06:54:20;100265.00;;;12.33;32.07
71151;BME280;59071;42.138;24.768;2023-02-18T06:56:45;100262.59;;;12.65;31.78
71151;BME280;59071;42.138;24.768;2023-02-18T06:59:10;100252.94;;;12.84;31.55
71151;BME280;59071;42.138;24.768;2023-02-18T07:01:35;100248.16;;;13.26;30.44
71151;BME280;59071;42.138;24.768;2023-02-18T07:04:01;100249.22;;;13.25;30.53
71151;BME280;59071;42.138;24.768;2023-02-18T07:06:26;100245.91;;;13.23;30.48
71151;BME280;59071;42.138;24.768;2023-02-18T07:08:51;100252.28;;;13.42;30.24
71151;BME280;59071;42.138;24.768;2023-02-18T07:11:16;100262.50;;;13.59;30.37
71151;BME280;59071;42.138;24.768;2023-02-18T07:13:42;100254.78;;;13.89;29.99
71151;BME280;59071;42.138;24.768;2023-02-18T07:16:07;100274.25;;;13.58;30.44
71151;BME280;59071;42.138;24.768;2023-02-18T07:18:32;100265.84;;;13.41;30.66
71151;BME280;59071;42.138;24.768;2023-02-18T07:20:58;100251.34;;;13.68;30.16
71151;BME280;59071;42.138;24.768;2023-02-18T07:23:23;100253.03;;;14.08;29.87
71151;BME280;59071;42.138;24.768;2023-02-18T07:25:48;100249.16;;;14.04;30.04
71151;BME280;59071;42.138;24.768;2023-02-18T07:28:14;100261.50;;;14.05;29.62
71151;BME280;59071;42.138;24.768;2023-02-18T07:30:39;100260.97;;;14.28;29.59
71151;BME280;59071;42.138;24.768;2023-02-18T07:33:04;100258.44;;;14.40;29.29
71151;BME280;59071;42.138;24.768;2023-02-18T07:35:30;100248.53;;;14.40;29.09
71151;BME280;59071;42.138;24.768;2023-02-18T07:37:55;100229.06;;;14.26;29.57
71151;BME280;59071;42.138;24.768;2023-02-18T07:40:21;100219.13;;;14.34;29.73
71151;BME280;59071;42.138;24.768;2023-02-18T07:42:47;100225.97;;;14.61;29.31
71151;BME280;59071;42.138;24.768;2023-02-18T07:45:13;100229.41;;;14.69;28.98
71151;BME280;59071;42.138;24.768;2023-02-18T07:47:38;100235.19;;;14.34;28.98
71151;BME280;59071;42.138;24.768;2023-02-18T07:50:04;100224.81;;;14.76;30.48
71151;BME280;59071;42.138;24.768;2023-02-18T07:52:30;100225.34;;;14.59;29.62
71151;BME280;59071;42.138;24.768;2023-02-18T07:54:55;100223.03;;;14.38;29.70
71151;BME280;59071;42.138;24.768;2023-02-18T07:57:20;100222.34;;;14.74;28.96
71151;BME280;59071;42.138;24.768;2023-02-18T07:59:45;100227.13;;;14.72;29.35
71151;BME280;59071;42.138;24.768;2023-02-18T08:02:16;100222.13;;;15.01;29.08
71151;BME280;59071;42.138;24.768;2023-02-18T08:04:41;100214.31;;;15.36;28.49
71151;BME280;59071;42.138;24.768;2023-02-18T08:07:10;100215.88;;;15.81;28.47
71151;BME280;59071;42.138;24.768;2023-02-18T08:09:36;100210.31;;;16.25;27.31
71151;BME280;59071;42.138;24.768;2023-02-18T08:12:01;100205.94;;;16.00;28.34
71151;BME280;59071;42.138;24.768;2023-02-18T08:14:26;100217.34;;;17.03;29.65
71151;BME280;59071;42.138;24.768;2023-02-18T08:16:51;100218.78;;;17.58;26.43
71151;BME280;59071;42.138;24.768;2023-02-18T08:19:17;100208.13;;;17.51;26.38
71151;BME280;59071;42.138;24.768;2023-02-18T08:21:42;100206.88;;;17.54;26.24
71151;BME280;59071;42.138;24.768;2023-02-18T08:24:07;100199.31;;;17.68;26.28
71151;BME280;59071;42.138;24.768;2023-02-18T08:26:33;100200.97;;;17.69;25.77
71151;BME280;59071;42.138;24.768;2023-02-18T08:28:58;100197.78;;;17.72;25.64
71151;BME280;59071;42.138;24.768;2023-02-18T08:31:24;100203.44;;;17.58;27.82
71151;BME280;59071;42.138;24.768;2023-02-18T08:33:51;100195.94;;;17.61;25.92
71151;BME280;59071;42.138;24.768;2023-02-18T08:36:17;100197.38;;;17.51;26.73
71151;BME280;59071;42.138;24.768;2023-02-18T08:38:42;100198.44;;;17.50;26.87
71151;BME280;59071;42.138;24.768;2023-02-18T08:41:08;100212.41;;;17.76;26.51
71151;BME280;59071;42.138;24.768;2023-02-18T08:43:33;100207.13;;;17.81;26.32
71151;BME280;59071;42.138;24.768;2023-02-18T08:45:59;100203.44;;;17.99;25.99
71151;BME280;59071;42.138;24.768;2023-02-18T08:48:24;100205.53;;;18.43;25.40
71151;BME280;59071;42.138;24.768;2023-02-18T08:50:50;100212.00;;;18.42;25.75
71151;BME280;59071;42.138;24.768;2023-02-18T08:53:15;100205.97;;;18.68;25.33
71151;BME280;59071;42.138;24.768;2023-02-18T08:55:41;100212.97;;;19.42;25.17
71151;BME280;59071;42.138;24.768;2023-02-18T08:58:06;100214.06;;;18.68;24.79
71151;BME280;59071;42.138;24.768;2023-02-18T09:00:32;100222.22;;;18.56;25.39
71151;BME280;59071;42.138;24.768;2023-02-18T09:02:57;100214.19;;;19.12;25.10
71151;BME280;59071;42.138;24.768;2023-02-18T09:05:23;100212.28;;;19.96;23.86
71151;BME280;59071;42.138;24.768;2023-02-18T09:07:48;100209.91;;;20.32;23.91
71151;BME280;59071;42.138;24.768;2023-02-18T09:10:13;100205.63;;;20.36;23.40
71151;BME280;59071;42.138;24.768;2023-02-18T09:12:38;100204.63;;;19.88;24.13
71151;BME280;59071;42.138;24.768;2023-02-18T09:15:04;100201.69;;;20.49;23.54
71151;BME280;59071;42.138;24.768;2023-02-18T09:17:29;100210.06;;;20.80;23.48
71151;BME280;59071;42.138;24.768;2023-02-18T09:19:55;100201.25;;;20.30;23.04
71151;BME280;59071;42.138;24.768;2023-02-18T09:22:20;100189.16;;;20.38;23.78
71151;BME280;59071;42.138;24.768;2023-02-18T09:24:46;100194.44;;;20.22;23.49
71151;BME280;59071;42.138;24.768;2023-02-18T09:27:11;100190.66;;;19.96;23.83
71151;BME280;59071;42.138;24.768;2023-02-18T09:29:37;100195.75;;;19.92;23.83
71151;BME280;59071;42.138;24.768;2023-02-18T09:32:03;100191.53;;;19.75;23.65
71151;BME280;59071;42.138;24.768;2023-02-18T09:34:29;100200.28;;;19.87;23.87
71151;BME280;59071;42.138;24.768;2023-02-18T09:36:54;100192.09;;;20.04;23.54
71151;BME280;59071;42.138;24.768;2023-02-18T09:39:19;100188.34;;;20.37;22.94
71151;BME280;59071;42.138;24.768;2023-02-18T09:44:20;100203.66;;;20.26;22.94
71151;BME280;59071;42.138;24.768;2023-02-18T09:46:51;100207.66;;;19.91;23.48
71151;BME280;59071;42.138;24.768;2023-02-18T09:49:19;100199.38;;;20.30;22.94
71151;BME280;59071;42.138;24.768;2023-02-18T09:51:45;100203.66;;;20.91;22.54
71151;BME280;59071;42.138;24.768;2023-02-18T09:54:11;100204.41;;;21.34;22.43
71151;BME280;59071;42.138;24.768;2023-02-18T09:56:38;100191.69;;;20.82;22.47
71151;BME280;59071;42.138;24.768;2023-02-18T09:59:05;100185.84;;;20.30;22.71
71151;BME280;59071;42.138;24.768;2023-02-18T10:01:35;100182.75;;;20.17;23.29
71151;BME280;59071;42.138;24.768;2023-02-18T10:06:42;100167.16;;;20.24;23.38
71151;BME280;59071;42.138;24.768;2023-02-18T10:09:17;100155.00;;;20.26;23.25
71151;BME280;59071;42.138;24.768;2023-02-18T10:11:44;100154.66;;;20.50;22.71
71151;BME280;59071;42.138;24.768;2023-02-18T10:14:13;100148.44;;;20.87;22.80
71151;BME280;59071;42.138;24.768;2023-02-18T10:16:39;100141.19;;;21.61;21.89
71151;BME280;59071;42.138;24.768;2023-02-18T10:22:06;100123.75;;;21.31;21.49
71151;BME280;59071;42.138;24.768;2023-02-18T10:24:41;100128.81;;;22.01;21.12
71151;BME280;59071;42.138;24.768;2023-02-18T10:27:08;100130.50;;;21.23;21.78
71151;BME280;59071;42.138;24.768;2023-02-18T10:29:34;100130.22;;;21.25;21.38
71151;BME280;59071;42.138;24.768;2023-02-18T10:51:52;100082.69;;;21.50;21.14
71151;BME280;59071;42.138;24.768;2023-02-18T10:54:22;100082.84;;;21.17;21.14
71151;BME280;59071;42.138;24.768;2023-02-18T10:56:48;100088.31;;;21.33;20.89
71151;BME280;59071;42.138;24.768;2023-02-18T10:59:20;100084.56;;;21.44;20.50
71151;BME280;59071;42.138;24.768;2023-02-18T11:01:52;100094.09;;;22.44;20.26
71151;BME280;59071;42.138;24.768;2023-02-18T11:04:19;100077.56;;;22.04;20.69
71151;BME280;59071;42.138;24.768;2023-02-18T11:06:48;100081.66;;;22.33;20.42
71151;BME280;59071;42.138;24.768;2023-02-18T11:09:33;100080.97;;;22.87;20.20
71151;BME280;59071;42.138;24.768;2023-02-18T11:12:04;100080.16;;;23.52;19.77
71151;BME280;59071;42.138;24.768;2023-02-18T11:14:37;100072.97;;;23.66;19.66
71151;BME280;59071;42.138;24.768;2023-02-18T11:17:14;100054.59;;;23.53;19.59
71151;BME280;59071;42.138;24.768;2023-02-18T11:19:41;100061.88;;;23.18;19.70
71151;BME280;59071;42.138;24.768;2023-02-18T11:22:14;100063.81;;;23.96;19.22
71151;BME280;59071;42.138;24.768;2023-02-18T11:24:44;100056.47;;;23.13;19.77
71151;BME280;59071;42.138;24.768;2023-02-18T11:29:48;100038.13;;;22.79;20.46
71151;BME280;59071;42.138;24.768;2023-02-18T11:32:14;100041.88;;;22.98;20.47
71151;BME280;59071;42.138;24.768;2023-02-18T11:34:40;100038.28;;;22.38;20.72
71151;BME280;59071;42.138;24.768;2023-02-18T11:37:28;100042.91;;;22.27;20.98
71151;BME280;59071;42.138;24.768;2023-02-18T11:39:53;100039.88;;;22.23;21.16
71151;BME280;59071;42.138;24.768;2023-02-18T11:42:21;100025.84;;;21.96;21.21
71151;BME280;59071;42.138;24.768;2023-02-18T11:44:51;100025.00;;;21.64;21.51
71151;BME280;59071;42.138;24.768;2023-02-18T11:47:19;100029.09;;;21.52;21.05
71151;BME280;59071;42.138;24.768;2023-02-18T11:49:57;100022.06;;;21.71;21.00
71151;BME280;59071;42.138;24.768;2023-02-18T11:52:36;100023.88;;;21.35;21.25
71151;BME280;59071;42.138;24.768;2023-02-18T11:57:31;100026.91;;;21.79;20.93
71151;BME280;59071;42.138;24.768;2023-02-18T11:59:58;100013.38;;;21.69;20.74
71151;BME280;59071;42.138;24.768;2023-02-18T12:02:30;100018.50;;;22.22;20.84
71151;BME280;59071;42.138;24.768;2023-02-18T12:04:59;100014.41;;;22.19;20.77
71151;BME280;59071;42.138;24.768;2023-02-18T12:07:30;100012.03;;;21.87;21.10
71151;BME280;59071;42.138;24.768;2023-02-18T12:09:59;100003.63;;;21.58;21.45
71151;BME280;59071;42.138;24.768;2023-02-18T12:12:40;100006.88;;;21.55;21.91
71151;BME280;59071;42.138;24.768;2023-02-18T12:15:11;100003.31;;;22.36;21.01
71151;BME280;59071;42.138;24.768;2023-02-18T12:21:01;99986.56;;;22.89;20.99
71151;BME280;59071;42.138;24.768;2023-02-18T12:34:25;99962.50;;;23.56;21.08
71151;BME280;59071;42.138;24.768;2023-02-18T12:36:24;99969.41;;;23.04;21.44
71151;BME280;59071;42.138;24.768;2023-02-18T13:15:24;99937.38;;;22.96;22.14
71151;BME280;59071;42.138;24.768;2023-02-18T13:17:55;99933.00;;;23.45;21.99
71151;BME280;59071;42.138;24.768;2023-02-18T13:20:55;99930.81;;;23.47;22.17
71151;BME280;59071;42.138;24.768;2023-02-18T13:23:17;99927.81;;;23.48;22.20
71151;BME280;59071;42.138;24.768;2023-02-18T13:25:43;99933.03;;;23.39;22.29
71151;BME280;59071;42.138;24.768;2023-02-18T13:28:16;99935.84;;;23.29;22.22
71151;BME280;59071;42.138;24.768;2023-02-18T13:30:49;99934.56;;;23.21;22.50
71151;BME280;59071;42.138;24.768;2023-02-18T13:36:01;99949.47;;;22.69;22.84
71151;BME280;59071;42.138;24.768;2023-02-18T13:41:16;99936.00;;;23.03;22.70
71151;BME280;59071;42.138;24.768;2023-02-18T13:43:41;99938.56;;;23.29;22.43
71151;BME280;59071;42.138;24.768;2023-02-18T13:46:12;99941.16;;;23.10;22.64
71151;BME280;59071;42.138;24.768;2023-02-18T13:48:46;99947.78;;;22.83;22.77
71151;BME280;59071;42.138;24.768;2023-02-18T13:51:13;99932.78;;;23.36;22.56
71151;BME280;59071;42.138;24.768;2023-02-18T13:53:41;99930.91;;;23.36;22.36
71151;BME280;59071;42.138;24.768;2023-02-18T13:56:19;99928.50;;;23.30;22.16
71151;BME280;59071;42.138;24.768;2023-02-18T13:58:49;99926.31;;;23.95;22.05
71151;BME280;59071;42.138;24.768;2023-02-18T14:01:36;99928.94;;;23.02;22.35
71151;BME280;59071;42.138;24.768;2023-02-18T14:04:00;99927.50;;;22.76;22.35
71151;BME280;59071;42.138;24.768;2023-02-18T14:06:30;99921.09;;;23.01;22.27
71151;BME280;59071;42.138;24.768;2023-02-18T14:09:02;99934.28;;;23.23;22.01
71151;BME280;59071;42.138;24.768;2023-02-18T14:11:32;99936.84;;;22.49;22.61
71151;BME280;59071;42.138;24.768;2023-02-18T14:16:23;99937.66;;;22.50;22.73
71151;BME280;59071;42.138;24.768;2023-02-18T14:18:57;99936.69;;;22.75;22.49
71151;BME280;59071;42.138;24.768;2023-02-18T14:21:34;99940.97;;;22.21;23.04
71151;BME280;59071;42.138;24.768;2023-02-18T14:24:00;99933.41;;;22.28;22.69
71151;BME280;59071;42.138;24.768;2023-02-18T14:26:30;99942.13;;;21.89;23.24
71151;BME280;59071;42.138;24.768;2023-02-18T14:29:00;99941.59;;;21.92;23.37
71151;BME280;59071;42.138;24.768;2023-02-18T14:36:55;99929.72;;;21.67;23.48
71151;BME280;59071;42.138;24.768;2023-02-18T14:42:04;99930.22;;;21.95;23.38
71151;BME280;59071;42.138;24.768;2023-02-18T14:44:42;99912.94;;;21.45;23.49
71151;BME280;59071;42.138;24.768;2023-02-18T14:49:51;99916.44;;;21.35;23.98
71151;BME280;59071;42.138;24.768;2023-02-18T14:54:42;99912.06;;;21.96;23.57
71151;BME280;59071;42.138;24.768;2023-02-18T14:57:11;99913.97;;;21.34;24.27
71151;BME280;59071;42.138;24.768;2023-02-18T14:59:39;99914.28;;;21.63;24.05
71151;BME280;59071;42.138;24.768;2023-02-18T15:02:23;99911.81;;;21.77;24.07
71151;BME280;59071;42.138;24.768;2023-02-18T15:04:51;99905.06;;;21.28;24.38
71151;BME280;59071;42.138;24.768;2023-02-18T15:07:18;99911.03;;;21.45;24.05
71151;BME280;59071;42.138;24.768;2023-02-18T15:09:44;99912.91;;;21.14;24.73
71151;BME280;59071;42.138;24.768;2023-02-18T15:12:11;99911.00;;;20.99;24.65
71151;BME280;59071;42.138;24.768;2023-02-18T15:14:41;99913.44;;;20.22;25.67
71151;BME280;59071;42.138;24.768;2023-02-18T15:17:12;99909.56;;;20.61;25.07
71151;BME280;59071;42.138;24.768;2023-02-18T15:19:39;99902.34;;;21.02;25.00